Time;durP1;ratioP1;P1;durP2;ratioP2;P2;SDS_P1;SDS_P2;PMS_P1;PMS_P2;Temp;Humidity;BMP_temperature;BMP_pressure;BME280_temperature;BME280_humidity;BME280_pressure;Samples;Min_cycle;Max_cycle;Signal;HPM_P1;HPM_P2
2023/03/18 00:01:57;;;;;;;12.63;5.80;;;;;;;;;;5032673;28;20057;-80
2023/03/18 00:04:23;;;;;;;15.68;5.13;;;;;;;;;;5054920;28;20547;-79
2023/03/18 00:06:50;;;;;;;11.20;4.97;;;;;;;;;;5034915;28;20610;-78
2023/03/18 00:09:16;;;;;;;13.15;5.05;;;;;;;;;;5033888;28;20091;-81
2023/03/18 00:11:44;;;;;;;12.82;5.00;;;;;;;;;;5033928;28;20124;-80
2023/03/18 00:14:11;;;;;;;14.10;5.38;;;;;;;;;;5034120;28;20079;-80
2023/03/18 00:16:38;;;;;;;10.75;4.53;;;;;;;;;;5035536;28;20051;-79
2023/03/18 00:19:06;;;;;;;13.02;5.65;;;;;;;;;;5047127;28;20057;-80
2023/03/18 00:21:33;;;;;;;11.93;4.80;;;;;;;;;;5048762;28;20029;-79
2023/03/18 00:23:59;;;;;;;11.80;4.93;;;;;;;;;;5036912;28;20042;-80
2023/03/18 00:26:27;;;;;;;12.90;5.03;;;;;;;;;;5031773;28;20475;-81
2023/03/18 00:28:54;;;;;;;11.73;5.28;;;;;;;;;;5033890;28;20049;-81
2023/03/18 00:31:21;;;;;;;11.02;4.82;;;;;;;;;;5030599;28;20034;-80
2023/03/18 00:33:49;;;;;;;14.18;5.50;;;;;;;;;;5034137;28;20800;-80
2023/03/18 00:36:24;;;;;;;11.82;5.10;;;;;;;;;;5048243;28;20686;-80
2023/03/18 00:38:56;;;;;;;15.85;5.32;;;;;;;;;;5033360;28;20046;-80
2023/03/18 00:41:26;;;;;;;13.18;5.15;;;;;;;;;;5031996;28;20147;-80
2023/03/18 00:43:55;;;;;;;19.52;5.28;;;;;;;;;;5050027;28;20049;-80
2023/03/18 00:46:23;;;;;;;13.68;5.20;;;;;;;;;;5036112;28;20239;-80
2023/03/18 00:48:51;;;;;;;9.35;4.60;;;;;;;;;;5036296;28;20068;-80
2023/03/18 00:51:19;;;;;;;11.00;5.55;;;;;;;;;;5052284;28;20052;-80
2023/03/18 00:53:47;;;;;;;10.52;5.00;;;;;;;;;;5068606;28;20053;-80
2023/03/18 00:56:15;;;;;;;13.25;5.07;;;;;;;;;;5064147;28;20531;-79
2023/03/18 00:58:41;;;;;;;13.52;4.85;;;;;;;;;;5031184;28;20528;-81
2023/03/18 01:01:08;;;;;;;12.95;5.00;;;;;;;;;;5031566;28;20061;-80
2023/03/18 01:03:36;;;;;;;20.48;5.30;;;;;;;;;;5031217;28;20049;-80
2023/03/18 01:06:03;;;;;;;17.60;5.30;;;;;;;;;;5032665;28;20042;-81
2023/03/18 01:08:32;;;;;;;14.10;4.95;;;;;;;;;;5029918;28;20131;-79
2023/03/18 01:10:59;;;;;;;13.23;4.57;;;;;;;;;;5030069;28;20133;-79
2023/03/18 01:13:26;;;;;;;9.02;4.63;;;;;;;;;;5030257;28;20589;-80
2023/03/18 01:15:53;;;;;;;12.90;4.65;;;;;;;;;;5032032;28;20485;-79
2023/03/18 01:18:20;;;;;;;11.02;4.82;;;;;;;;;;5029941;28;20441;-81
2023/03/18 01:20:50;;;;;;;11.38;4.60;;;;;;;;;;5031542;28;20068;-80
2023/03/18 01:23:19;;;;;;;11.40;4.28;;;;;;;;;;5064327;28;20120;-80
2023/03/18 01:25:46;;;;;;;10.52;4.85;;;;;;;;;;5031263;28;20063;-80
2023/03/18 01:28:17;;;;;;;13.00;4.65;;;;;;;;;;5031406;28;20120;-80
2023/03/18 01:30:43;;;;;;;11.40;4.47;;;;;;;;;;5030916;28;20049;-80
2023/03/18 01:33:14;;;;;;;9.88;4.60;;;;;;;;;;5031114;28;20049;-80
2023/03/18 01:35:41;;;;;;;10.20;4.80;;;;;;;;;;5030714;28;20052;-81
2023/03/18 01:38:07;;;;;;;11.10;4.95;;;;;;;;;;5063654;28;20045;-80
2023/03/18 01:40:35;;;;;;;12.00;4.93;;;;;;;;;;5014294;28;20041;-81
2023/03/18 01:43:11;;;;;;;12.60;5.10;;;;;;;;;;5016007;28;20056;-81
2023/03/18 01:45:39;;;;;;;11.85;4.80;;;;;;;;;;5015434;28;20092;-80
2023/03/18 01:48:09;;;;;;;10.95;5.10;;;;;;;;;;5016788;28;20589;-80
2023/03/18 01:50:36;;;;;;;12.27;5.03;;;;;;;;;;5020304;28;20065;-81
2023/03/18 01:53:08;;;;;;;14.18;5.15;;;;;;;;;;5025076;28;20050;-80
2023/03/18 01:55:35;;;;;;;12.98;4.90;;;;;;;;;;4988475;28;20046;-80
2023/03/18 01:58:05;;;;;;;11.40;4.75;;;;;;;;;;5013969;28;20045;-80
2023/03/18 02:00:35;;;;;;;10.18;4.70;;;;;;;;;;5035815;28;20041;-81
2023/03/18 02:03:03;;;;;;;14.68;5.05;;;;;;;;;;5065828;28;20055;-80
2023/03/18 02:05:30;;;;;;;11.95;4.43;;;;;;;;;;5036339;28;20052;-79
2023/03/18 02:07:57;;;;;;;11.77;5.10;;;;;;;;;;5034556;28;20041;-80
2023/03/18 02:10:25;;;;;;;13.63;5.05;;;;;;;;;;5068634;28;20045;-78
2023/03/18 02:12:59;;;;;;;11.77;5.32;;;;;;;;;;5032238;28;20049;-78
2023/03/18 02:15:33;;;;;;;9.52;4.60;;;;;;;;;;5032312;28;20049;-79
2023/03/18 02:18:01;;;;;;;13.98;4.93;;;;;;;;;;5030755;28;20079;-78
2023/03/18 02:20:37;;;;;;;12.20;4.03;;;;;;;;;;5035441;28;20045;-79
2023/03/18 02:23:23;;;;;;;13.05;4.55;;;;;;;;;;5035218;28;20613;-79
2023/03/18 02:26:07;;;;;;;12.20;4.40;;;;;;;;;;5035447;28;20111;-80
2023/03/18 02:28:34;;;;;;;10.98;4.43;;;;;;;;;;5033325;28;20049;-81
2023/03/18 02:31:02;;;;;;;13.82;4.93;;;;;;;;;;5018356;28;20045;-79
2023/03/18 02:33:38;;;;;;;13.38;4.95;;;;;;;;;;5051035;28;20128;-81
2023/03/18 02:36:16;;;;;;;11.50;4.75;;;;;;;;;;5035480;28;20105;-81
2023/03/18 02:38:44;;;;;;;12.82;4.40;;;;;;;;;;5039819;28;20053;-79
2023/03/18 02:41:20;;;;;;;11.88;4.80;;;;;;;;;;5038038;28;20045;-80
2023/03/18 02:43:48;;;;;;;14.18;4.57;;;;;;;;;;5060379;28;20050;-81
2023/03/18 02:46:29;;;;;;;13.90;4.97;;;;;;;;;;5045763;28;20045;-82
2023/03/18 02:49:00;;;;;;;11.68;4.53;;;;;;;;;;5067286;28;20140;-81
2023/03/18 02:51:28;;;;;;;10.77;4.40;;;;;;;;;;5050832;28;20097;-80
2023/03/18 02:53:59;;;;;;;14.75;4.82;;;;;;;;;;5034492;28;20046;-81
2023/03/18 02:56:27;;;;;;;10.98;4.63;;;;;;;;;;5062367;28;20060;-80
2023/03/18 02:58:54;;;;;;;14.05;5.00;;;;;;;;;;5034766;28;20060;-81
2023/03/18 03:01:21;;;;;;;11.32;4.72;;;;;;;;;;5035251;28;20509;-81
2023/03/18 03:03:49;;;;;;;10.52;4.68;;;;;;;;;;5035190;28;20111;-79
2023/03/18 03:06:16;;;;;;;11.75;4.18;;;;;;;;;;5033922;28;20061;-80
2023/03/18 03:08:43;;;;;;;14.38;4.97;;;;;;;;;;5068032;28;20041;-82
2023/03/18 03:11:10;;;;;;;12.65;4.50;;;;;;;;;;5015697;28;20510;-81
2023/03/18 03:13:39;;;;;;;11.27;4.88;;;;;;;;;;5032804;28;20109;-81
2023/03/18 03:16:08;;;;;;;9.20;3.85;;;;;;;;;;5034604;28;20053;-79
2023/03/18 03:18:36;;;;;;;12.98;4.32;;;;;;;;;;5036106;28;20064;-80
2023/03/18 03:21:03;;;;;;;11.75;4.53;;;;;;;;;;5036411;28;20054;-79
2023/03/18 03:23:31;;;;;;;9.57;4.60;;;;;;;;;;5036195;28;20041;-79
2023/03/18 03:25:57;;;;;;;11.02;4.32;;;;;;;;;;5032946;28;20076;-79
2023/03/18 03:28:25;;;;;;;11.50;4.55;;;;;;;;;;5037155;28;20053;-80
2023/03/18 03:30:52;;;;;;;11.13;4.60;;;;;;;;;;5033481;28;20084;-79
2023/03/18 03:33:19;;;;;;;12.40;4.93;;;;;;;;;;5029441;28;20045;-79
2023/03/18 03:35:46;;;;;;;13.00;4.50;;;;;;;;;;5012632;28;20052;-79
2023/03/18 03:38:12;;;;;;;12.25;5.07;;;;;;;;;;5028878;28;20413;-79
2023/03/18 03:40:39;;;;;;;10.95;4.05;;;;;;;;;;5027988;28;20117;-79
2023/03/18 03:43:06;;;;;;;13.90;4.57;;;;;;;;;;5029344;28;20058;-80
2023/03/18 03:45:32;;;;;;;9.75;4.30;;;;;;;;;;5031130;28;20161;-78
2023/03/18 03:47:59;;;;;;;12.60;4.65;;;;;;;;;;5029516;28;20045;-78
2023/03/18 03:50:26;;;;;;;11.50;4.88;;;;;;;;;;5028753;28;20145;-80
2023/03/18 03:52:53;;;;;;;9.13;4.30;;;;;;;;;;5027805;28;20045;-80
2023/03/18 03:55:20;;;;;;;13.13;4.22;;;;;;;;;;5028333;28;20049;-79
2023/03/18 03:57:47;;;;;;;13.10;4.53;;;;;;;;;;5029767;28;20053;-80
2023/03/18 04:00:16;;;;;;;11.93;4.78;;;;;;;;;;5043689;28;20600;-80
2023/03/18 04:02:46;;;;;;;12.15;4.35;;;;;;;;;;5014235;28;20041;-80
2023/03/18 04:05:16;;;;;;;8.88;4.20;;;;;;;;;;5016843;28;20125;-79
2023/03/18 04:07:44;;;;;;;14.63;4.63;;;;;;;;;;5011058;28;20049;-79
2023/03/18 04:10:16;;;;;;;9.65;4.70;;;;;;;;;;5010920;28;20046;-79
2023/03/18 04:12:44;;;;;;;9.80;4.13;;;;;;;;;;4995999;28;20033;-80
2023/03/18 04:15:12;;;;;;;10.20;3.78;;;;;;;;;;5011170;28;20546;-79
2023/03/18 04:17:40;;;;;;;13.38;4.40;;;;;;;;;;4994526;28;20116;-79
2023/03/18 04:20:08;;;;;;;12.10;5.32;;;;;;;;;;5011705;28;20045;-80
2023/03/18 04:22:35;;;;;;;12.05;4.70;;;;;;;;;;5011533;28;20053;-80
2023/03/18 04:25:03;;;;;;;8.90;4.30;;;;;;;;;;5010316;28;20046;-79
2023/03/18 04:27:31;;;;;;;8.85;4.93;;;;;;;;;;5010404;28;20067;-80
2023/03/18 04:30:04;;;;;;;11.13;4.63;;;;;;;;;;4994411;28;20130;-81
2023/03/18 04:32:37;;;;;;;10.65;4.45;;;;;;;;;;5011172;28;20042;-80
2023/03/18 04:35:05;;;;;;;14.15;5.25;;;;;;;;;;4995233;28;20050;-80
2023/03/18 04:37:33;;;;;;;10.85;4.82;;;;;;;;;;5010873;28;20053;-80
2023/03/18 04:40:06;;;;;;;10.73;4.35;;;;;;;;;;5043641;28;20061;-80
2023/03/18 04:42:33;;;;;;;11.05;4.70;;;;;;;;;;5011369;28;20052;-80
2023/03/18 04:45:01;;;;;;;11.70;5.45;;;;;;;;;;5009713;28;20044;-81
2023/03/18 04:47:33;;;;;;;9.90;4.32;;;;;;;;;;5010898;28;20479;-80
2023/03/18 04:50:01;;;;;;;11.93;4.07;;;;;;;;;;5045686;28;20394;-79
2023/03/18 04:52:28;;;;;;;14.23;4.65;;;;;;;;;;5013481;28;20038;-80
2023/03/18 04:54:55;;;;;;;14.82;5.10;;;;;;;;;;5056766;28;20052;-78
2023/03/18 04:57:22;;;;;;;12.38;4.70;;;;;;;;;;5012579;28;20045;-79
2023/03/18 04:59:52;;;;;;;10.00;4.95;;;;;;;;;;5022735;28;20114;-80
2023/03/18 05:02:19;;;;;;;12.32;5.15;;;;;;;;;;5013039;28;20048;-80
2023/03/18 05:04:46;;;;;;;11.77;4.65;;;;;;;;;;5011757;28;20124;-80
2023/03/18 05:07:14;;;;;;;17.58;4.82;;;;;;;;;;5013484;28;20046;-81
2023/03/18 05:09:48;;;;;;;12.40;4.82;;;;;;;;;;5020159;28;20133;-81
2023/03/18 05:12:15;;;;;;;11.88;4.45;;;;;;;;;;5017440;28;20109;-79
2023/03/18 05:14:42;;;;;;;12.35;4.53;;;;;;;;;;5011089;28;20041;-80
2023/03/18 05:17:14;;;;;;;14.23;5.25;;;;;;;;;;5011807;28;20096;-80
2023/03/18 05:19:46;;;;;;;11.65;4.80;;;;;;;;;;5017105;28;20054;-80
2023/03/18 05:22:18;;;;;;;10.90;4.30;;;;;;;;;;5017101;28;20048;-78
2023/03/18 05:24:49;;;;;;;10.48;4.82;;;;;;;;;;5014193;28;20061;-79
2023/03/18 05:27:17;;;;;;;11.88;4.85;;;;;;;;;;5017932;28;20025;-80
2023/03/18 05:29:52;;;;;;;13.48;5.20;;;;;;;;;;5021865;28;20046;-80
2023/03/18 05:32:26;;;;;;;18.48;4.85;;;;;;;;;;5030292;28;20060;-77
2023/03/18 05:34:59;;;;;;;13.63;5.03;;;;;;;;;;5060902;28;20038;-82
2023/03/18 05:37:28;;;;;;;12.82;4.97;;;;;;;;;;5050779;28;20052;-79
2023/03/18 05:40:01;;;;;;;11.82;4.57;;;;;;;;;;5031709;28;20045;-79
2023/03/18 05:42:29;;;;;;;12.65;4.72;;;;;;;;;;5032463;28;20099;-80
2023/03/18 05:44:56;;;;;;;11.70;4.82;;;;;;;;;;5033630;28;20038;-79
2023/03/18 05:47:26;;;;;;;11.00;4.60;;;;;;;;;;5050163;28;20046;-80
2023/03/18 05:50:04;;;;;;;14.57;4.97;;;;;;;;;;5049150;28;20052;-80
2023/03/18 05:52:35;;;;;;;12.55;4.68;;;;;;;;;;5035511;28;20037;-81
2023/03/18 05:55:11;;;;;;;13.85;4.85;;;;;;;;;;5031287;28;20050;-80
2023/03/18 05:57:41;;;;;;;13.43;4.90;;;;;;;;;;5034245;28;20152;-81
2023/03/18 06:00:09;;;;;;;12.10;5.00;;;;;;;;;;5033736;28;20087;-80
2023/03/18 06:02:43;;;;;;;15.13;5.00;;;;;;;;;;5066524;28;20091;-79
2023/03/18 06:05:12;;;;;;;13.35;4.85;;;;;;;;;;5036403;28;20045;-79
2023/03/18 06:07:39;;;;;;;16.02;5.28;;;;;;;;;;5034030;28;20104;-79
2023/03/18 06:10:06;;;;;;;14.63;5.18;;;;;;;;;;5051421;28;20506;-80
2023/03/18 06:12:33;;;;;;;15.13;5.30;;;;;;;;;;5017178;28;20053;-84
2023/03/18 06:15:00;;;;;;;9.40;4.50;;;;;;;;;;5028867;28;20172;-81
2023/03/18 06:17:27;;;;;;;13.40;5.00;;;;;;;;;;5027107;28;20059;-82
2023/03/18 06:19:57;;;;;;;10.05;5.03;;;;;;;;;;5034422;28;20140;-82
2023/03/18 06:22:25;;;;;;;9.13;4.47;;;;;;;;;;5031471;28;20500;-82
2023/03/18 06:24:52;;;;;;;16.33;5.43;;;;;;;;;;5030483;28;20462;-83
2023/03/18 06:27:18;;;;;;;11.00;4.53;;;;;;;;;;5033600;28;20056;-81
2023/03/18 06:29:51;;;;;;;9.32;5.05;;;;;;;;;;5045799;28;20049;-80
2023/03/18 06:32:18;;;;;;;11.65;5.20;;;;;;;;;;5034415;28;20453;-80
2023/03/18 06:34:45;;;;;;;14.55;4.88;;;;;;;;;;5025726;28;20099;-81
2023/03/18 06:37:11;;;;;;;11.02;4.60;;;;;;;;;;5029952;28;20482;-80
2023/03/18 06:39:38;;;;;;;10.57;4.90;;;;;;;;;;5032710;28;20072;-82
2023/03/18 06:42:09;;;;;;;10.60;4.40;;;;;;;;;;4996515;28;20056;-79
2023/03/18 06:44:49;;;;;;;9.65;4.80;;;;;;;;;;5026206;28;20057;-78
2023/03/18 06:47:21;;;;;;;11.13;4.30;;;;;;;;;;5029987;28;20049;-79
2023/03/18 06:49:54;;;;;;;16.83;4.72;;;;;;;;;;5034334;28;20069;-80
2023/03/18 06:52:32;;;;;;;10.02;4.35;;;;;;;;;;5034500;28;20049;-79
2023/03/18 06:55:05;;;;;;;12.07;4.90;;;;;;;;;;5030516;28;20045;-79
2023/03/18 06:57:36;;;;;;;13.25;5.18;;;;;;;;;;5036060;28;20672;-79
2023/03/18 07:00:03;;;;;;;15.07;6.30;;;;;;;;;;5044501;28;20493;-79
2023/03/18 07:02:30;;;;;;;16.23;7.18;;;;;;;;;;5036432;28;20066;-80
2023/03/18 07:04:58;;;;;;;28.92;10.85;;;;;;;;;;5038385;28;21774;-81
2023/03/18 07:07:26;;;;;;;30.33;11.82;;;;;;;;;;5041376;28;20100;-81
2023/03/18 07:09:53;;;;;;;26.50;10.48;;;;;;;;;;5046245;28;20444;-81
2023/03/18 07:12:21;;;;;;;25.23;10.25;;;;;;;;;;5057341;28;20128;-81
2023/03/18 07:14:48;;;;;;;26.50;9.98;;;;;;;;;;5059725;28;20045;-82
2023/03/18 07:17:17;;;;;;;28.70;11.70;;;;;;;;;;5041030;28;20113;-81
2023/03/18 07:19:44;;;;;;;38.13;15.90;;;;;;;;;;5041527;28;20076;-82
2023/03/18 07:22:10;;;;;;;27.33;11.32;;;;;;;;;;5071732;28;20410;-78
2023/03/18 07:24:37;;;;;;;23.10;8.55;;;;;;;;;;5040136;28;20112;-81
2023/03/18 07:27:05;;;;;;;30.55;11.15;;;;;;;;;;5049854;28;20068;-81
2023/03/18 07:29:32;;;;;;;24.15;9.80;;;;;;;;;;5042819;28;20139;-80
2023/03/18 07:32:01;;;;;;;19.13;7.70;;;;;;;;;;5039711;28;20191;-81
2023/03/18 07:34:27;;;;;;;15.90;6.35;;;;;;;;;;5042380;28;20071;-81
2023/03/18 07:36:54;;;;;;;48.53;14.50;;;;;;;;;;5037290;28;20048;-80
2023/03/18 07:39:23;;;;;;;98.05;28.25;;;;;;;;;;5036835;28;20061;-80
2023/03/18 07:41:50;;;;;;;72.43;20.58;;;;;;;;;;5040113;28;20080;-81
2023/03/18 07:44:20;;;;;;;58.67;16.55;;;;;;;;;;5039417;28;20045;-81
2023/03/18 07:46:47;;;;;;;63.45;17.13;;;;;;;;;;5041732;28;20488;-80
2023/03/18 07:49:14;;;;;;;220.25;50.22;;;;;;;;;;5051971;28;20076;-81
2023/03/18 07:51:41;;;;;;;329.80;79.03;;;;;;;;;;5052984;28;20029;-81
2023/03/18 07:54:08;;;;;;;285.83;76.75;;;;;;;;;;5041078;28;20048;-82
2023/03/18 07:56:35;;;;;;;143.13;47.25;;;;;;;;;;5025782;28;20059;-81
2023/03/18 07:59:01;;;;;;;39.55;15.45;;;;;;;;;;5038381;28;20530;-81
2023/03/18 08:01:28;;;;;;;11.73;5.78;;;;;;;;;;5030738;28;20044;-80
2023/03/18 08:03:54;;;;;;;13.77;4.75;;;;;;;;;;5039197;28;20132;-80
2023/03/18 08:06:21;;;;;;;11.48;4.50;;;;;;;;;;5037707;28;20332;-80
2023/03/18 08:08:48;;;;;;;11.73;4.30;;;;;;;;;;5042348;28;20144;-80
2023/03/18 08:11:15;;;;;;;11.80;4.15;;;;;;;;;;5029914;28;20057;-80
2023/03/18 08:13:41;;;;;;;11.07;4.85;;;;;;;;;;5038568;28;20041;-81
2023/03/18 08:16:08;;;;;;;10.38;4.40;;;;;;;;;;5040108;28;20037;-78
2023/03/18 08:18:35;;;;;;;12.57;4.32;;;;;;;;;;5014673;28;20057;-80
2023/03/18 08:21:02;;;;;;;12.80;4.40;;;;;;;;;;5043052;28;20041;-78
2023/03/18 08:23:28;;;;;;;10.15;4.28;;;;;;;;;;5030145;28;20045;-79
2023/03/18 08:25:55;;;;;;;7.80;3.83;;;;;;;;;;5039575;28;20045;-81
2023/03/18 08:28:22;;;;;;;9.38;3.80;;;;;;;;;;5031605;28;20041;-80
2023/03/18 08:30:52;;;;;;;10.95;3.58;;;;;;;;;;5048700;28;20051;-82
2023/03/18 08:33:19;;;;;;;7.00;3.13;;;;;;;;;;5049402;28;20064;-79
2023/03/18 08:35:46;;;;;;;8.13;3.70;;;;;;;;;;5035580;28;20077;-79
2023/03/18 08:38:13;;;;;;;6.65;2.75;;;;;;;;;;5034405;28;20227;-79
2023/03/18 08:40:42;;;;;;;6.45;2.92;;;;;;;;;;5031502;28;20052;-80
2023/03/18 08:43:08;;;;;;;8.27;3.47;;;;;;;;;;5002365;28;20550;-81
2023/03/18 08:45:35;;;;;;;7.70;2.78;;;;;;;;;;5025477;28;20128;-80
2023/03/18 08:48:02;;;;;;;5.90;3.00;;;;;;;;;;5039752;28;20052;-81
2023/03/18 08:50:28;;;;;;;5.60;2.30;;;;;;;;;;5026403;28;20056;-80
2023/03/18 08:52:56;;;;;;;6.18;2.20;;;;;;;;;;5011311;28;20062;-81
2023/03/18 08:55:28;;;;;;;6.05;2.22;;;;;;;;;;5011081;28;20133;-81
2023/03/18 08:57:55;;;;;;;8.07;2.15;;;;;;;;;;5015297;28;20109;-78
2023/03/18 09:00:21;;;;;;;6.68;2.38;;;;;;;;;;5035182;28;20125;-80
2023/03/18 09:02:48;;;;;;;4.72;2.03;;;;;;;;;;5012849;28;20054;-81
2023/03/18 09:05:15;;;;;;;4.38;2.10;;;;;;;;;;5007673;28;20136;-79
2023/03/18 09:07:42;;;;;;;6.85;2.63;;;;;;;;;;5025764;28;20051;-80
2023/03/18 09:10:11;;;;;;;7.13;2.17;;;;;;;;;;5017928;28;20073;-79
2023/03/18 09:12:39;;;;;;;4.70;2.13;;;;;;;;;;5037705;28;20238;-82
2023/03/18 09:15:07;;;;;;;4.78;2.20;;;;;;;;;;4996809;28;20488;-82
2023/03/18 09:17:36;;;;;;;6.80;2.13;;;;;;;;;;5004454;28;20125;-80
2023/03/18 09:20:22;;;;;;;7.85;2.35;;;;;;;;;;5020063;28;20076;-79
2023/03/18 09:22:50;;;;;;;7.05;2.15;;;;;;;;;;5031857;28;20056;-80
2023/03/18 09:25:17;;;;;;;9.43;2.03;;;;;;;;;;5027014;28;20080;-80
2023/03/18 09:27:44;;;;;;;49.97;4.03;;;;;;;;;;5032255;28;20061;-81
2023/03/18 09:30:12;;;;;;;6.78;2.13;;;;;;;;;;5026908;28;20053;-82
2023/03/18 09:32:39;;;;;;;17.48;2.05;;;;;;;;;;5026679;28;20064;-81
2023/03/18 09:35:08;;;;;;;5.18;1.85;;;;;;;;;;5042554;28;20487;-80
2023/03/18 09:37:39;;;;;;;2.92;1.50;;;;;;;;;;5033765;28;20068;-81
2023/03/18 09:40:06;;;;;;;3.17;1.70;;;;;;;;;;5034784;28;20041;-81
2023/03/18 09:42:46;;;;;;;4.57;1.45;;;;;;;;;;5026852;28;20065;-81
2023/03/18 09:45:18;;;;;;;3.10;1.52;;;;;;;;;;5041039;28;20060;-81
2023/03/18 09:48:12;;;;;;;3.15;1.38;;;;;;;;;;5027847;28;20103;-80
2023/03/18 09:50:52;;;;;;;4.55;1.52;;;;;;;;;;5027534;28;20046;-82
2023/03/18 09:53:21;;;;;;;3.30;1.88;;;;;;;;;;5033058;28;20108;-80
2023/03/18 09:55:51;;;;;;;3.72;1.70;;;;;;;;;;5033939;28;20061;-80
2023/03/18 09:58:21;;;;;;;4.30;1.50;;;;;;;;;;5028631;28;20076;-80
2023/03/18 10:00:49;;;;;;;2.03;1.10;;;;;;;;;;5026077;28;20163;-80
2023/03/18 10:03:31;;;;;;;8.10;1.40;;;;;;;;;;5032947;28;20358;-79
2023/03/18 10:06:15;;;;;;;3.95;1.50;;;;;;;;;;5023330;28;20057;-81
2023/03/18 10:08:42;;;;;;;3.58;1.50;;;;;;;;;;5034851;28;20116;-81
2023/03/18 10:11:31;;;;;;;3.15;1.45;;;;;;;;;;5024024;28;20057;-81
2023/03/18 10:14:13;;;;;;;5.97;1.30;;;;;;;;;;5019234;28;20061;-82
2023/03/18 10:16:50;;;;;;;3.63;1.50;;;;;;;;;;5055534;28;20152;-80
2023/03/18 10:19:16;;;;;;;2.70;1.40;;;;;;;;;;5039502;28;20045;-82
2023/03/18 10:21:48;;;;;;;3.50;1.45;;;;;;;;;;5037698;28;20337;-81
2023/03/18 10:24:22;;;;;;;5.15;1.50;;;;;;;;;;5034774;28;20657;-80
2023/03/18 10:27:09;;;;;;;4.20;1.70;;;;;;;;;;5033456;28;20310;-80
2023/03/18 10:29:54;;;;;;;5.85;1.58;;;;;;;;;;5013757;28;20505;-79
2023/03/18 10:32:34;;;;;;;4.33;1.60;;;;;;;;;;5031508;28;20053;-81
2023/03/18 10:35:29;;;;;;;3.25;1.50;;;;;;;;;;5028896;28;20819;-79
2023/03/18 10:38:01;;;;;;;3.30;1.38;;;;;;;;;;5028249;28;20061;-80
2023/03/18 10:40:31;;;;;;;2.67;1.20;;;;;;;;;;5019815;28;20056;-80
2023/03/18 10:42:58;;;;;;;4.30;1.70;;;;;;;;;;5017172;28;20060;-80
2023/03/18 10:45:26;;;;;;;2.42;1.40;;;;;;;;;;5011488;28;20054;-79
2023/03/18 10:48:03;;;;;;;5.05;1.30;;;;;;;;;;5013543;28;20387;-81
2023/03/18 10:50:36;;;;;;;5.63;1.40;;;;;;;;;;5019137;28;20060;-80
2023/03/18 10:53:13;;;;;;;2.58;1.20;;;;;;;;;;5027261;28;20440;-82
2023/03/18 10:55:49;;;;;;;3.38;1.52;;;;;;;;;;5029093;28;20096;-80
2023/03/18 10:58:16;;;;;;;5.30;1.50;;;;;;;;;;5029823;28;20372;-81
2023/03/18 11:00:45;;;;;;;3.15;1.13;;;;;;;;;;5020920;28;20069;-81
2023/03/18 11:03:38;;;;;;;4.53;1.40;;;;;;;;;;5030226;28;20068;-81
2023/03/18 11:06:06;;;;;;;3.20;1.40;;;;;;;;;;5022177;28;20056;-79
2023/03/18 11:08:38;;;;;;;3.70;1.63;;;;;;;;;;5032854;28;20129;-81
2023/03/18 11:11:24;;;;;;;3.20;1.40;;;;;;;;;;5032787;28;20045;-80
2023/03/18 11:13:52;;;;;;;1.50;1.10;;;;;;;;;;5030317;28;20049;-80
2023/03/18 11:16:21;;;;;;;4.43;1.45;;;;;;;;;;5027182;28;20045;-80
2023/03/18 11:18:50;;;;;;;3.42;1.58;;;;;;;;;;5031238;28;20060;-81
2023/03/18 11:21:16;;;;;;;4.43;1.52;;;;;;;;;;5032759;28;20049;-79
2023/03/18 11:24:06;;;;;;;3.45;1.60;;;;;;;;;;5032260;28;20052;-81
2023/03/18 11:26:44;;;;;;;4.47;1.58;;;;;;;;;;5044729;28;20119;-80
2023/03/18 11:29:15;;;;;;;3.22;1.70;;;;;;;;;;5030379;28;20091;-80
2023/03/18 11:31:57;;;;;;;3.95;1.27;;;;;;;;;;5032242;28;20556;-79
2023/03/18 11:34:31;;;;;;;2.28;1.25;;;;;;;;;;5018515;28;20104;-81
2023/03/18 11:37:09;;;;;;;3.47;1.67;;;;;;;;;;5028170;28;20053;-81
2023/03/18 11:39:38;;;;;;;4.28;1.35;;;;;;;;;;5031046;28;20064;-83
2023/03/18 11:42:16;;;;;;;2.58;1.17;;;;;;;;;;5030531;28;20045;-79
2023/03/18 11:44:43;;;;;;;2.83;1.30;;;;;;;;;;5039080;28;20042;-80
2023/03/18 11:47:13;;;;;;;4.50;1.80;;;;;;;;;;5028130;28;20041;-80
2023/03/18 11:49:42;;;;;;;5.10;1.65;;;;;;;;;;5030254;28;20051;-82
2023/03/18 11:52:28;;;;;;;4.95;1.60;;;;;;;;;;5058893;28;20045;-79
2023/03/18 11:55:07;;;;;;;4.90;1.35;;;;;;;;;;5030215;28;20076;-81
2023/03/18 11:57:34;;;;;;;3.33;1.67;;;;;;;;;;5045448;28;20045;-80
2023/03/18 12:00:19;;;;;;;3.65;1.50;;;;;;;;;;5027783;28;20060;-80
2023/03/18 12:02:46;;;;;;;3.83;1.75;;;;;;;;;;5034382;28;20057;-80
2023/03/18 12:05:16;;;;;;;4.40;1.92;;;;;;;;;;5042346;28;20114;-81
2023/03/18 12:07:54;;;;;;;7.85;2.17;;;;;;;;;;5034615;28;20056;-80
2023/03/18 12:10:35;;;;;;;6.07;1.83;;;;;;;;;;5009888;28;20046;-81
2023/03/18 12:13:04;;;;;;;4.50;1.33;;;;;;;;;;5026276;28;20050;-81
2023/03/18 12:15:35;;;;;;;2.70;1.38;;;;;;;;;;5049377;28;20459;-80
2023/03/18 12:18:02;;;;;;;4.78;2.15;;;;;;;;;;5029027;28;20049;-80
2023/03/18 12:20:49;;;;;;;3.10;1.40;;;;;;;;;;5028908;28;20104;-81
2023/03/18 12:23:38;;;;;;;5.25;1.30;;;;;;;;;;5029643;28;20061;-80
2023/03/18 12:26:19;;;;;;;2.42;1.20;;;;;;;;;;5027213;28;20073;-81
2023/03/18 12:28:53;;;;;;;2.03;1.10;;;;;;;;;;5021276;28;20557;-80
2023/03/18 12:31:39;;;;;;;6.22;1.52;;;;;;;;;;5026825;28;20119;-79
2023/03/18 12:34:06;;;;;;;;;;;;;;;;;;5025490;28;20067;-79
2023/03/18 12:36:38;;;;;;;3.22;1.40;;;;;;;;;;5026936;28;19964;-81
2023/03/18 12:39:08;;;;;;;3.10;1.40;;;;;;;;;;5042265;28;20048;-80
2023/03/18 12:41:34;;;;;;;2.33;1.27;;;;;;;;;;5048085;28;20045;-80
2023/03/18 12:44:18;;;;;;;3.65;1.55;;;;;;;;;;5037392;28;20056;-80
2023/03/18 12:46:47;;;;;;;4.43;1.90;;;;;;;;;;5046834;28;20053;-81
2023/03/18 12:49:34;;;;;;;3.33;1.70;;;;;;;;;;5037189;28;20045;-81
2023/03/18 12:52:05;;;;;;;3.38;1.35;;;;;;;;;;5028696;28;20081;-79
2023/03/18 12:54:57;;;;;;;4.90;1.63;;;;;;;;;;5023848;28;20591;-80
2023/03/18 12:57:39;;;;;;;5.63;1.80;;;;;;;;;;5013053;28;20041;-78
2023/03/18 13:00:17;;;;;;;6.40;1.75;;;;;;;;;;5008242;28;20046;-79
2023/03/18 13:03:16;;;;;;;4.80;1.45;;;;;;;;;;5028257;28;20054;-80
2023/03/18 13:05:46;;;;;;;2.67;1.52;;;;;;;;;;5020001;28;20044;-81
2023/03/18 13:08:15;;;;;;;3.92;1.73;;;;;;;;;;5025339;28;20077;-78
2023/03/18 13:10:44;;;;;;;4.97;1.65;;;;;;;;;;5002880;28;20071;-79
2023/03/18 13:13:12;;;;;;;5.88;1.52;;;;;;;;;;5030612;28;20160;-78
2023/03/18 13:15:50;;;;;;;3.30;1.48;;;;;;;;;;5013242;28;20054;-81
2023/03/18 13:18:23;;;;;;;2.88;1.40;;;;;;;;;;5019413;28;20490;-81
2023/03/18 13:20:52;;;;;;;5.30;1.30;;;;;;;;;;5014279;28;20518;-81
2023/03/18 13:23:42;;;;;;;2.97;1.30;;;;;;;;;;5009875;28;20173;-80
2023/03/18 13:26:15;;;;;;;2.70;1.40;;;;;;;;;;5009308;28;20042;-79
2023/03/18 13:28:45;;;;;;;2.53;1.40;;;;;;;;;;5010631;28;20117;-81
2023/03/18 13:31:12;;;;;;;1.75;1.30;;;;;;;;;;5011395;28;20128;-81
2023/03/18 13:33:51;;;;;;;2.05;1.15;;;;;;;;;;5010533;28;20107;-81
2023/03/18 13:36:38;;;;;;;3.38;1.25;;;;;;;;;;5011208;28;20065;-81
2023/03/18 13:39:14;;;;;;;3.10;1.20;;;;;;;;;;5012303;28;20050;-81
2023/03/18 13:41:41;;;;;;;2.22;1.00;;;;;;;;;;5013867;28;20170;-81
2023/03/18 13:44:16;;;;;;;1.90;1.25;;;;;;;;;;5011214;28;20074;-82
2023/03/18 13:46:52;;;;;;;3.15;1.27;;;;;;;;;;5011274;28;20069;-81
2023/03/18 13:49:20;;;;;;;2.97;1.30;;;;;;;;;;5026615;28;20065;-80
2023/03/18 13:51:49;;;;;;;4.50;1.50;;;;;;;;;;5029690;28;20042;-80
2023/03/18 13:54:19;;;;;;;2.28;1.20;;;;;;;;;;5022779;28;20056;-80
2023/03/18 13:56:48;;;;;;;3.03;1.40;;;;;;;;;;5034444;28;20053;-80
2023/03/18 13:59:33;;;;;;;1.92;1.05;;;;;;;;;;5034198;28;20425;-80
2023/03/18 14:02:19;;;;;;;1.55;1.05;;;;;;;;;;5031254;28;20059;-79
2023/03/18 14:04:49;;;;;;;4.43;1.02;;;;;;;;;;5030995;28;20481;-78
2023/03/18 14:07:18;;;;;;;2.25;1.02;;;;;;;;;;5030687;28;20132;-78
2023/03/18 14:09:50;;;;;;;4.22;1.08;;;;;;;;;;5030254;28;20057;-78
2023/03/18 14:12:41;;;;;;;4.47;1.02;;;;;;;;;;5035743;28;20045;-78
2023/03/18 14:15:08;;;;;;;1.92;1.30;;;;;;;;;;5027140;28;20124;-81
2023/03/18 14:17:47;;;;;;;3.55;1.17;;;;;;;;;;5041499;28;20129;-80
2023/03/18 14:20:14;;;;;;;1.30;1.10;;;;;;;;;;5044997;28;20111;-80
2023/03/18 14:22:41;;;;;;;4.60;1.38;;;;;;;;;;5034797;28;20042;-80
2023/03/18 14:25:08;;;;;;;2.45;1.10;;;;;;;;;;5041526;28;20261;-79
2023/03/18 14:27:44;;;;;;;1.65;1.20;;;;;;;;;;5037310;28;20097;-78
2023/03/18 14:30:38;;;;;;;5.20;1.25;;;;;;;;;;5036336;28;20454;-80
2023/03/18 14:33:25;;;;;;;2.45;1.17;;;;;;;;;;5040510;28;20041;-80
2023/03/18 14:35:57;;;;;;;3.40;1.40;;;;;;;;;;5050897;28;20037;-79
2023/03/18 14:38:48;;;;;;;1.98;1.02;;;;;;;;;;5033652;28;20052;-77
2023/03/18 14:41:24;;;;;;;2.05;1.20;;;;;;;;;;5010556;28;20121;-78
2023/03/18 14:43:53;;;;;;;2.22;1.35;;;;;;;;;;5032840;28;20346;-80
2023/03/18 14:46:23;;;;;;;2.85;1.20;;;;;;;;;;5028012;28;20348;-81
2023/03/18 14:48:51;;;;;;;2.45;1.00;;;;;;;;;;5031382;28;20124;-81
2023/03/18 14:51:22;;;;;;;5.00;1.33;;;;;;;;;;5021073;28;20037;-80
2023/03/18 14:53:55;;;;;;;3.47;1.30;;;;;;;;;;5020880;28;20061;-79
2023/03/18 14:56:28;;;;;;;3.20;1.20;;;;;;;;;;5029050;28;20049;-77
2023/03/18 14:58:55;;;;;;;4.82;1.30;;;;;;;;;;5032580;28;20137;-81